Decoded Metar for VOTV (TRIVANDRUM in INDIA) (IATA:TRV) | Meteo·Mobile Aviation Weather
aviador You're here:

VOTV Decoded Metar

TRIVANDRUM in INDIA
Report Time2019-08-19 19:00:00
UTC Time2019-08-19 19:17:54
Flight Rules ifr IFR
Wind340° at 04 kt
W.Decomp.*RWY 32: 3.7 kt HW 1.6 kt RCW
Visibility3000 m
Phenomena:Mist
Clouds:Scattered 015 Hf
Scattered 080 Hf
Expected CloudBase > 800 ft AGL from Temp-Dew spread
CeilingNone
Temp27°C (ISA +12)
Dew Point25°C (89% RH)
Heat Index30.6°C
QNH1010 hPa
Density Alt1,932 ft
Elevation26 ft
Report Wrong Elevation
Raw Report
VOTV 191900Z 34004KT 3000 BR SCT015 SCT080 27/25 Q1010 NOSIG=

Extra information for VOTV:More info

Metar Taf Metar & Taf Last 4 Metars F.Rules Stats Wind Profile Meteogram Temp Stats Airport Information Weather charts Add Link Nearby VenuesMetar ALERT Operation Metar Decoded Social comments